Huvudsida
METAR-TAF:

METAR-TAF

Flygplatser :

Mariehamns flygplats

Mariehamn, Finland

latitud: 60-07N, longitud: 019-54E, höjd: 6 m

Aktuellt väderrapport

Denna rapport gjordes för 38 minuter sedan, klockan 14:20 UTC
Vind 10 kt från syd/sydväst
Temperatur 12°C
Fuktighet 54%
Tryck 1027 hPa
Sikt 10 km eller mer
Inga moln under 1 500 m eller inga cumulonimbus

METAR: EFMA 231420Z AUTO 20010KT CAVOK 12/03 Q1027

Tid: 17:58 (14:58 UTC)

Väderprognos

Denna rapport gjordes för 29 minuter sedan, klockan 14:29 UTC
Prognos gäller från 23 kl. 15 UTC till 23 kl. 24 UTC
Vind 10 kt från syd/sydväst
Sikt 10 km eller mer
Inga moln under 1 500 m eller inga cumulonimbus
Blir
från 23 kl. 22 UTC till 23 kl. 24 UTC
Vind 4 kt från ost/sydost

TAF: EFMA 231429Z 2315/2324 20010KT CAVOK BECMG 2322/2324 11004KT

Aktuella väderrapporter och prognoser från 4000 flygplatser (METAR- och TAF-rapporter).

De tillgängliga stationerna syns som gula och röda prickar på kartan.

För musen över prickarna för att se namnen på stationerna.

Klicka sedan för att få väderrapporter och prognoser.

För att ändra kartan: Klicka på de gröna knapparna med ett svart kors på för att zooma in; den gröna knappen med ett streck på för att zooma ut; eller på de gröna pilarna för angränsande kartor.


METAR-TAF: